Time;durP1;ratioP1;P1;durP2;ratioP2;P2;SDS_P1;SDS_P2;PMS_P1;PMS_P2;Temp;Humidity;BMP_temperature;BMP_pressure;BME280_temperature;BME280_humidity;BME280_pressure;Samples;Min_cycle;Max_cycle;Signal;HPM_P1;HPM_P2
2022/06/09 00:01:20;;;;;;;11.95;10.70;;;19.00;99.90;;;;;;5072264;28;20201;-70
2022/06/09 00:03:53;;;;;;;11.25;10.20;;;19.00;99.90;;;;;;5071196;28;20213;-69
2022/06/09 00:06:21;;;;;;;11.73;10.52;;;19.00;99.90;;;;;;5060384;28;20201;-69
2022/06/09 00:08:52;;;;;;;12.25;10.65;;;18.90;99.90;;;;;;5073358;28;20217;-69
2022/06/09 00:11:23;;;;;;;14.10;11.80;;;19.00;99.90;;;;;;5065029;28;20657;-69
2022/06/09 00:13:50;;;;;;;12.38;11.07;;;19.00;99.90;;;;;;5063060;28;20676;-70
2022/06/09 00:16:17;;;;;;;11.90;10.73;;;19.00;99.90;;;;;;5069183;28;20233;-70
2022/06/09 00:18:44;;;;;;;11.35;10.15;;;19.00;99.90;;;;;;5060714;28;20209;-69
2022/06/09 00:21:12;;;;;;;12.95;11.65;;;19.00;99.90;;;;;;5070785;28;20205;-69
2022/06/09 00:23:39;;;;;;;13.57;11.82;;;18.90;99.90;;;;;;5072166;28;20256;-69
2022/06/09 00:26:07;;;;;;;16.98;14.18;;;18.90;99.90;;;;;;5068784;28;20207;-69
2022/06/09 00:28:34;;;;;;;16.52;13.73;;;18.90;99.90;;;;;;5072773;28;20228;-69
2022/06/09 00:31:01;;;;;;;15.40;13.70;;;19.00;99.90;;;;;;5072366;28;20220;-69
2022/06/09 00:33:28;;;;;;;16.05;14.23;;;18.90;99.90;;;;;;5071430;28;20251;-69
2022/06/09 00:35:55;;;;;;;14.52;12.93;;;18.90;99.90;;;;;;5072810;28;20212;-70
2022/06/09 00:38:23;;;;;;;13.45;12.15;;;18.90;99.90;;;;;;5072856;28;20646;-69
2022/06/09 00:40:50;;;;;;;14.60;13.20;;;18.90;99.90;;;;;;5070381;28;20223;-70
2022/06/09 00:43:16;;;;;;;13.95;12.50;;;19.00;99.90;;;;;;5069825;28;20232;-69
2022/06/09 00:45:50;;;;;;;12.95;11.65;;;18.90;99.90;;;;;;5070897;28;20216;-69
2022/06/09 00:48:29;;;;;;;14.30;12.90;;;19.00;99.90;;;;;;5072812;28;20229;-69
2022/06/09 00:51:01;;;;;;;15.20;13.50;;;19.00;99.90;;;;;;5057510;28;20558;-69
2022/06/09 00:53:33;;;;;;;17.02;12.63;;;19.00;99.90;;;;;;5072185;28;20205;-69
2022/06/09 00:56:02;;;;;;;14.30;12.73;;;19.00;99.90;;;;;;5062085;28;20205;-69
2022/06/09 00:58:33;;;;;;;13.90;12.57;;;19.00;99.90;;;;;;5072340;28;20251;-69
2022/06/09 01:01:03;;;;;;;12.98;11.68;;;19.00;99.90;;;;;;5071864;28;20276;-69
2022/06/09 01:03:34;;;;;;;15.15;12.70;;;19.10;99.90;;;;;;5064500;28;20225;-69
2022/06/09 01:06:07;;;;;;;12.88;11.65;;;19.10;99.90;;;;;;5071343;28;20291;-70
2022/06/09 01:08:38;;;;;;;12.95;11.70;;;19.10;99.90;;;;;;5072576;28;20616;-69
2022/06/09 01:11:05;;;;;;;12.95;11.57;;;19.10;99.90;;;;;;5061950;28;20564;-70
2022/06/09 01:13:33;;;;;;;13.82;11.60;;;19.10;99.90;;;;;;5070480;28;20250;-70
2022/06/09 01:16:09;;;;;;;15.13;12.73;;;19.10;99.90;;;;;;5071445;28;20660;-69
2022/06/09 01:18:44;;;;;;;12.63;11.43;;;19.10;99.90;;;;;;5058392;28;20210;-70
2022/06/09 01:21:30;;;;;;;12.48;11.27;;;19.10;99.90;;;;;;5071660;28;20680;-70
2022/06/09 01:24:26;;;;;;;13.68;12.05;;;19.10;99.90;;;;;;5072400;28;20217;-70
2022/06/09 01:27:16;;;;;;;13.60;12.20;;;19.10;99.90;;;;;;5069961;28;20205;-69
2022/06/09 01:29:49;;;;;;;14.38;12.98;;;19.10;99.90;;;;;;5063704;28;20682;-69
2022/06/09 01:32:22;;;;;;;13.70;12.30;;;19.20;99.90;;;;;;5058524;28;20199;-70
2022/06/09 01:35:08;;;;;;;13.25;11.88;;;19.20;99.90;;;;;;5072921;28;20205;-69
2022/06/09 01:37:39;;;;;;;13.48;12.18;;;19.20;99.90;;;;;;5075849;28;20208;-69
2022/06/09 01:40:09;;;;;;;14.88;12.18;;;19.10;99.90;;;;;;5074656;28;20204;-70
2022/06/09 01:42:38;;;;;;;13.52;12.15;;;19.10;99.90;;;;;;5073293;28;20204;-69
2022/06/09 01:45:09;;;;;;;12.98;11.68;;;19.20;99.90;;;;;;5067960;28;20222;-70
2022/06/09 01:47:44;;;;;;;14.13;12.73;;;19.20;99.90;;;;;;5058267;28;20194;-70
2022/06/09 01:50:15;;;;;;;13.32;12.02;;;19.20;99.90;;;;;;5069111;28;20637;-69
2022/06/09 01:52:44;;;;;;;13.50;12.10;;;19.20;99.90;;;;;;5076052;28;20216;-70
2022/06/09 01:55:16;;;;;;;13.98;12.57;;;19.20;99.90;;;;;;5076191;28;20205;-70
2022/06/09 01:57:44;;;;;;;14.63;13.13;;;19.20;99.90;;;;;;5074437;28;20565;-71
2022/06/09 02:00:14;;;;;;;13.85;12.45;;;19.20;99.90;;;;;;5074655;28;20201;-70
2022/06/09 02:02:47;;;;;;;13.95;12.50;;;19.10;99.90;;;;;;5074522;28;20205;-71
2022/06/09 02:05:19;;;;;;;14.57;13.07;;;19.20;99.90;;;;;;5075772;28;20213;-70
2022/06/09 02:07:47;;;;;;;14.52;13.13;;;19.10;99.90;;;;;;5075806;28;20252;-69
2022/06/09 02:10:21;;;;;;;14.90;12.63;;;19.10;99.90;;;;;;5074339;28;20206;-71
2022/06/09 02:12:50;;;;;;;15.48;13.98;;;19.10;99.90;;;;;;5072012;28;20211;-70
2022/06/09 02:15:22;;;;;;;14.30;12.80;;;19.00;99.90;;;;;;5068429;28;20202;-70
2022/06/09 02:17:51;;;;;;;14.13;12.73;;;19.00;99.90;;;;;;5076066;28;20315;-71
2022/06/09 02:20:20;;;;;;;15.20;13.65;;;19.00;99.90;;;;;;5075018;28;20201;-70
2022/06/09 02:22:47;;;;;;;15.27;13.77;;;18.90;99.90;;;;;;5074641;28;20652;-69
2022/06/09 02:25:14;;;;;;;14.52;13.10;;;19.00;99.90;;;;;;5075149;28;20243;-69
2022/06/09 02:27:41;;;;;;;12.77;11.57;;;19.00;99.90;;;;;;5075304;28;20661;-69
2022/06/09 02:30:10;;;;;;;13.95;12.55;;;18.90;99.90;;;;;;5074552;28;20229;-70
2022/06/09 02:32:37;;;;;;;15.43;13.55;;;18.90;99.90;;;;;;5074062;28;20198;-71
2022/06/09 02:35:06;;;;;;;15.00;13.55;;;18.90;99.90;;;;;;5073745;28;20220;-71
2022/06/09 02:37:33;;;;;;;14.20;12.88;;;18.90;99.90;;;;;;5075263;28;20209;-70
2022/06/09 02:40:00;;;;;;;16.48;13.20;;;18.90;99.90;;;;;;5074741;28;20217;-69
2022/06/09 02:42:26;;;;;;;16.17;14.60;;;18.90;99.90;;;;;;5071172;28;20627;-69
2022/06/09 02:44:53;;;;;;;15.40;13.63;;;18.90;99.90;;;;;;5073991;28;20225;-70
2022/06/09 02:47:20;;;;;;;15.90;13.77;;;18.80;99.90;;;;;;5074325;28;20216;-69
2022/06/09 02:49:47;;;;;;;15.43;13.93;;;18.80;99.90;;;;;;5073455;28;20236;-70
2022/06/09 02:52:15;;;;;;;17.45;14.77;;;18.80;99.90;;;;;;5073420;28;20223;-70
2022/06/09 02:54:42;;;;;;;14.18;12.88;;;18.90;99.90;;;;;;5064282;28;20210;-69
2022/06/09 02:57:09;;;;;;;16.05;13.77;;;18.80;99.90;;;;;;5074360;28;20554;-69
2022/06/09 02:59:35;;;;;;;15.63;14.00;;;18.80;99.90;;;;;;5072771;28;20210;-69
2022/06/09 03:02:02;;;;;;;16.10;14.57;;;18.80;99.90;;;;;;5074783;28;20649;-70
2022/06/09 03:04:29;;;;;;;15.45;13.98;;;18.80;99.90;;;;;;5073317;28;20217;-70
2022/06/09 03:06:56;;;;;;;15.13;13.63;;;18.80;99.90;;;;;;5075181;28;20295;-70
2022/06/09 03:09:24;;;;;;;15.68;14.07;;;18.80;99.90;;;;;;5074987;28;20201;-70
2022/06/09 03:11:51;;;;;;;16.88;14.55;;;18.80;99.90;;;;;;5074700;28;20205;-70
2022/06/09 03:14:18;;;;;;;16.67;14.98;;;18.80;99.90;;;;;;5071753;28;20212;-69
2022/06/09 03:16:44;;;;;;;16.80;15.05;;;18.80;99.90;;;;;;5071553;28;20241;-69
2022/06/09 03:19:11;;;;;;;16.17;14.32;;;18.80;99.90;;;;;;5073622;28;20220;-69
2022/06/09 03:21:38;;;;;;;15.98;14.27;;;18.90;99.90;;;;;;5074373;28;20220;-70
2022/06/09 03:24:06;;;;;;;15.88;14.27;;;18.90;99.90;;;;;;5073436;28;20780;-70
2022/06/09 03:26:34;;;;;;;15.38;13.85;;;19.00;99.90;;;;;;5074527;28;20212;-69
2022/06/09 03:29:01;;;;;;;16.10;14.50;;;18.90;99.90;;;;;;5073167;28;20236;-71
2022/06/09 03:31:27;;;;;;;16.65;15.00;;;18.90;99.90;;;;;;5074363;28;20228;-69
2022/06/09 03:33:54;;;;;;;16.45;14.70;;;18.90;99.90;;;;;;5072735;28;20202;-70
2022/06/09 03:36:21;;;;;;;16.00;14.38;;;18.90;99.90;;;;;;5074643;28;20209;-70
2022/06/09 03:38:48;;;;;;;17.17;15.48;;;18.90;99.90;;;;;;5073422;28;20210;-70
2022/06/09 03:41:14;;;;;;;16.73;14.65;;;18.80;99.90;;;;;;5074381;28;20205;-70
2022/06/09 03:43:43;;;;;;;16.55;15.00;;;18.80;99.90;;;;;;5072342;28;20662;-69
2022/06/09 03:46:12;;;;;;;16.50;14.80;;;18.80;99.90;;;;;;5065255;28;20224;-70
2022/06/09 03:48:38;;;;;;;16.90;15.20;;;18.80;99.90;;;;;;5073045;28;20696;-69
2022/06/09 03:51:05;;;;;;;18.88;15.77;;;18.70;99.90;;;;;;5074587;28;20233;-69
2022/06/09 03:53:32;;;;;;;16.20;14.70;;;18.70;99.90;;;;;;5073684;28;20599;-70
2022/06/09 03:55:59;;;;;;;16.55;14.85;;;18.70;99.90;;;;;;5072714;28;20580;-69
2022/06/09 03:58:26;;;;;;;16.52;14.88;;;18.70;99.90;;;;;;5071779;28;20579;-69
2022/06/09 04:00:54;;;;;;;16.83;14.27;;;18.80;99.90;;;;;;5072923;28;20209;-70
2022/06/09 04:03:21;;;;;;;18.15;16.25;;;18.80;99.90;;;;;;5073139;28;20605;-70
2022/06/09 04:05:48;;;;;;;17.38;15.70;;;18.80;99.90;;;;;;5072295;28;20649;-69
2022/06/09 04:08:15;;;;;;;17.85;15.90;;;18.70;99.90;;;;;;5073784;28;20209;-69
2022/06/09 04:10:42;;;;;;;17.20;15.40;;;18.70;99.90;;;;;;5073280;28;20209;-71
2022/06/09 04:13:09;;;;;;;17.95;16.15;;;18.70;99.90;;;;;;5065593;28;20224;-70
2022/06/09 04:15:37;;;;;;;18.40;16.45;;;18.70;99.90;;;;;;5072079;28;20241;-70
2022/06/09 04:18:05;;;;;;;17.48;15.65;;;18.70;99.90;;;;;;5073141;28;20254;-70
2022/06/09 04:20:32;;;;;;;16.70;14.90;;;18.60;99.90;;;;;;5066681;28;20209;-69
2022/06/09 04:22:59;;;;;;;18.45;16.55;;;18.60;99.90;;;;;;5073059;28;20241;-71
2022/06/09 04:25:26;;;;;;;18.15;15.98;;;18.70;99.90;;;;;;5071500;28;20229;-69
2022/06/09 04:27:53;;;;;;;18.65;16.75;;;18.70;99.90;;;;;;5071918;28;20300;-69
2022/06/09 04:30:21;;;;;;;18.15;16.27;;;18.80;99.90;;;;;;5072253;28;20229;-70
2022/06/09 04:32:47;;;;;;;20.13;17.85;;;18.90;99.90;;;;;;5071958;28;20201;-69
2022/06/09 04:35:16;;;;;;;18.38;16.48;;;18.90;99.90;;;;;;5072651;28;20682;-69
2022/06/09 04:38:01;;;;;;;18.10;16.30;;;19.00;99.90;;;;;;5069712;28;20657;-70
2022/06/09 04:40:28;;;;;;;17.95;16.00;;;19.00;99.90;;;;;;5068424;28;20655;-70
2022/06/09 04:42:55;;;;;;;16.20;14.60;;;19.00;99.90;;;;;;5062199;28;20566;-71
2022/06/09 04:45:22;;;;;;;17.65;15.80;;;19.10;99.90;;;;;;5070535;28;20228;-70
2022/06/09 04:47:49;;;;;;;17.77;15.80;;;19.20;99.90;;;;;;5062464;28;20204;-70
2022/06/09 04:50:18;;;;;;;18.75;16.75;;;19.30;99.90;;;;;;5066768;28;20206;-71
2022/06/09 04:52:45;;;;;;;18.02;16.25;;;19.40;99.90;;;;;;5062187;28;20244;-71
2022/06/09 04:55:13;;;;;;;18.08;15.80;;;19.40;99.90;;;;;;5072133;28;20205;-71
2022/06/09 04:57:40;;;;;;;17.83;15.98;;;19.50;99.90;;;;;;5071621;28;20213;-69
2022/06/09 05:00:10;;;;;;;17.40;15.48;;;19.50;99.90;;;;;;5070740;28;20205;-70
2022/06/09 05:02:36;;;;;;;17.45;15.35;;;19.50;99.90;;;;;;5069522;28;20233;-70
2022/06/09 05:05:04;;;;;;;18.38;16.58;;;19.50;99.90;;;;;;5077731;28;20232;-70
2022/06/09 05:07:32;;;;;;;17.27;15.57;;;19.50;99.90;;;;;;5071768;28;20205;-70
2022/06/09 05:09:58;;;;;;;17.58;15.77;;;19.60;99.90;;;;;;5072817;28;20213;-70
2022/06/09 05:12:25;;;;;;;16.20;14.60;;;19.60;99.90;;;;;;5068670;28;20206;-70
2022/06/09 05:14:53;;;;;;;16.90;15.30;;;19.70;99.90;;;;;;5059439;28;20201;-70
2022/06/09 05:17:20;;;;;;;16.75;15.05;;;19.80;99.90;;;;;;5069950;28;20327;-69
2022/06/09 05:19:47;;;;;;;17.55;15.75;;;19.90;99.90;;;;;;5060290;28;20209;-70
2022/06/09 05:22:13;;;;;;;18.58;16.58;;;20.00;99.90;;;;;;5069076;28;20205;-70
2022/06/09 05:24:42;;;;;;;16.17;14.68;;;20.00;99.90;;;;;;5072748;28;20592;-70
2022/06/09 05:27:11;;;;;;;17.00;15.20;;;20.00;99.90;;;;;;5071098;28;20201;-70
2022/06/09 05:29:37;;;;;;;16.02;14.52;;;20.00;99.90;;;;;;5072343;28;20229;-71
2022/06/09 05:32:05;;;;;;;16.95;15.35;;;20.00;99.90;;;;;;5067368;28;20209;-70
2022/06/09 05:34:32;;;;;;;17.42;15.73;;;20.10;99.90;;;;;;5065646;28;20202;-69
2022/06/09 05:36:58;;;;;;;16.13;14.43;;;20.20;99.90;;;;;;5067392;28;20209;-70
2022/06/09 05:44:57;;;;;;;15.63;14.13;;;20.40;99.90;;;;;;5068127;28;20308;-69
2022/06/09 05:47:24;;;;;;;15.18;13.73;;;20.60;99.90;;;;;;5074709;28;20209;-71
2022/06/09 05:49:53;;;;;;;14.20;12.77;;;20.70;99.90;;;;;;5066838;28;20688;-70
2022/06/09 05:52:23;;;;;;;15.13;13.45;;;20.90;99.90;;;;;;5075687;28;20296;-70
2022/06/09 05:54:51;;;;;;;16.20;13.30;;;21.10;99.90;;;;;;5070299;28;20710;-70
2022/06/09 05:57:19;;;;;;;14.73;13.27;;;21.20;99.90;;;;;;5072614;28;20654;-70
2022/06/09 05:59:46;;;;;;;14.25;12.77;;;21.30;99.90;;;;;;5072245;28;20209;-71
2022/06/09 06:02:15;;;;;;;13.98;12.57;;;21.40;99.90;;;;;;5063180;28;20205;-70
2022/06/09 06:04:43;;;;;;;16.33;13.00;;;21.50;99.90;;;;;;5064106;28;20593;-69
2022/06/09 06:07:09;;;;;;;13.93;12.52;;;21.50;99.90;;;;;;5068170;28;20557;-69
2022/06/09 06:09:36;;;;;;;14.02;12.32;;;21.60;99.90;;;;;;5063663;28;20200;-71
2022/06/09 06:12:04;;;;;;;14.43;12.52;;;21.60;99.90;;;;;;5069327;28;20213;-71
2022/06/09 06:14:32;;;;;;;13.90;12.50;;;21.60;99.90;;;;;;5070087;28;20213;-70
2022/06/09 06:16:59;;;;;;;18.45;13.50;;;21.60;99.90;;;;;;5070883;28;20675;-68
2022/06/09 06:19:26;;;;;;;14.15;12.65;;;21.60;99.90;;;;;;5069701;28;20216;-70
2022/06/09 06:21:54;;;;;;;14.18;12.23;;;21.70;99.90;;;;;;5071936;28;20209;-73
2022/06/09 06:24:23;;;;;;;14.00;12.55;;;21.80;99.90;;;;;;5069240;28;20205;-69
2022/06/09 06:26:50;;;;;;;17.48;12.85;;;21.90;99.90;;;;;;5071219;28;20681;-71
2022/06/09 06:29:21;;;;;;;14.45;12.88;;;22.10;99.90;;;;;;5072702;28;20233;-69
2022/06/09 06:31:50;;;;;;;14.45;12.85;;;22.30;99.90;;;;;;5069812;28;20341;-70
2022/06/09 06:34:17;;;;;;;14.75;12.52;;;22.50;99.90;;;;;;5070373;28;20702;-70
2022/06/09 06:36:44;;;;;;;12.90;11.80;;;22.80;99.90;;;;;;5064729;28;20197;-70
2022/06/09 06:39:11;;;;;;;14.10;12.60;;;23.10;99.90;;;;;;5072816;28;20680;-70
2022/06/09 06:41:39;;;;;;;14.10;12.73;;;23.30;99.90;;;;;;5070591;28;20204;-68
2022/06/09 06:44:06;;;;;;;15.10;13.52;;;23.50;99.90;;;;;;5060950;28;20224;-74
2022/06/09 06:46:33;;;;;;;15.40;12.68;;;23.50;99.90;;;;;;5067001;28;20718;-70
2022/06/09 06:49:01;;;;;;;14.35;12.85;;;23.50;99.90;;;;;;5066109;28;20209;-69
2022/06/09 06:51:28;;;;;;;12.77;11.57;;;23.60;99.90;;;;;;5066946;28;20580;-69
2022/06/09 06:53:55;;;;;;;14.05;12.55;;;23.70;99.90;;;;;;5066224;28;20577;-71
2022/06/09 06:56:21;;;;;;;13.43;12.05;;;23.70;99.90;;;;;;5066826;28;20201;-69
2022/06/09 06:58:48;;;;;;;14.30;12.77;;;23.70;99.90;;;;;;5083621;28;20812;-72
2022/06/09 07:01:15;;;;;;;13.65;12.15;;;23.60;99.90;;;;;;5077764;28;20200;-72
2022/06/09 07:03:42;;;;;;;13.45;12.05;;;23.50;99.90;;;;;;5094385;28;20668;-72
2022/06/09 07:06:10;;;;;;;12.13;10.93;;;23.40;99.90;;;;;;5083810;28;20223;-70
2022/06/09 07:08:37;;;;;;;13.65;12.07;;;23.30;99.90;;;;;;5072653;28;20209;-69
2022/06/09 07:11:05;;;;;;;15.23;13.07;;;23.20;99.90;;;;;;5085241;28;20205;-70
2022/06/09 07:13:32;;;;;;;16.48;12.93;;;23.30;99.90;;;;;;5074423;28;20212;-70
2022/06/09 07:15:59;;;;;;;17.52;13.52;;;23.30;99.90;;;;;;5074203;28;20221;-70
2022/06/09 07:18:26;;;;;;;14.13;12.32;;;23.40;99.90;;;;;;5073634;28;20289;-70
2022/06/09 07:20:53;;;;;;;15.57;13.85;;;23.50;99.90;;;;;;5071274;28;20213;-71
2022/06/09 07:23:24;;;;;;;17.40;14.15;;;23.70;99.90;;;;;;5073740;28;20209;-69
2022/06/09 07:25:51;;;;;;;14.93;12.80;;;23.90;99.90;;;;;;5074176;28;20213;-69
2022/06/09 07:28:18;;;;;;;17.67;13.30;;;24.10;99.90;;;;;;5073475;28;20209;-69
2022/06/09 07:30:46;;;;;;;12.88;11.68;;;24.40;99.90;;;;;;5073583;28;20213;-68
2022/06/09 07:33:13;;;;;;;14.10;12.77;;;24.60;99.90;;;;;;5073136;28;20217;-69
2022/06/09 07:35:41;;;;;;;13.43;12.10;;;24.70;99.90;;;;;;5073843;28;20224;-69
2022/06/09 07:38:10;;;;;;;14.73;11.70;;;24.80;99.90;;;;;;5074082;28;20216;-68
2022/06/09 07:40:41;;;;;;;13.25;12.00;;;24.80;99.90;;;;;;5067818;28;20212;-68
2022/06/09 07:43:08;;;;;;;13.07;11.75;;;24.70;99.90;;;;;;5065690;28;20205;-69
2022/06/09 07:45:36;;;;;;;13.65;12.35;;;24.80;99.90;;;;;;5073525;28;20225;-69
2022/06/09 07:48:04;;;;;;;13.48;12.00;;;24.90;99.90;;;;;;5076790;28;20202;-70
2022/06/09 07:50:31;;;;;;;13.75;12.32;;;25.00;99.90;;;;;;5076037;28;20228;-68
2022/06/09 07:52:58;;;;;;;13.63;12.27;;;25.10;99.90;;;;;;5066268;28;20296;-68
2022/06/09 07:55:25;;;;;;;14.02;12.40;;;25.30;99.90;;;;;;5069109;28;20198;-68
2022/06/09 07:57:55;;;;;;;14.60;11.93;;;25.40;99.90;;;;;;5073228;28;20213;-69
2022/06/09 08:00:23;;;;;;;13.27;11.88;;;25.50;99.90;;;;;;5073102;28;20205;-67
2022/06/09 08:02:51;;;;;;;12.68;11.35;;;25.70;99.90;;;;;;5066046;28;20210;-68
2022/06/09 08:05:21;;;;;;;13.57;11.70;;;25.80;99.90;;;;;;5073276;28;20693;-68
2022/06/09 08:07:48;;;;;;;16.10;11.25;;;25.90;99.90;;;;;;5067987;28;20665;-69
2022/06/09 08:10:18;;;;;;;17.48;15.68;;;25.80;99.90;;;;;;5072193;28;20212;-68
2022/06/09 08:12:45;;;;;;;13.88;11.75;;;25.80;99.90;;;;;;5073441;28;20236;-70
2022/06/09 08:15:14;;;;;;;12.88;11.57;;;25.70;99.90;;;;;;5071267;28;20677;-68
2022/06/09 08:17:41;;;;;;;12.40;11.30;;;25.60;99.90;;;;;;5072982;28;20292;-68
2022/06/09 08:20:09;;;;;;;11.93;10.82;;;25.60;99.90;;;;;;5066774;28;20198;-68
2022/06/09 08:22:40;;;;;;;11.43;10.40;;;25.50;99.90;;;;;;5072575;28;20202;-68
2022/06/09 08:25:08;;;;;;;12.05;10.95;;;25.60;99.90;;;;;;5072076;28;20292;-69
2022/06/09 08:27:35;;;;;;;12.50;11.30;;;25.70;99.90;;;;;;5062371;28;20701;-69
2022/06/09 08:30:02;;;;;;;15.27;10.43;;;25.70;99.90;;;;;;5069780;28;20225;-71
2022/06/09 08:32:30;;;;;;;12.27;11.18;;;25.80;99.90;;;;;;5071881;28;20211;-69
2022/06/09 08:34:57;;;;;;;11.20;10.10;;;25.90;99.90;;;;;;5071787;28;20205;-68
2022/06/09 08:37:25;;;;;;;11.18;10.18;;;25.90;99.90;;;;;;5072319;28;20213;-69
2022/06/09 08:39:52;;;;;;;11.43;10.43;;;25.80;99.90;;;;;;5072673;28;20209;-69
2022/06/09 08:42:30;;;;;;;12.73;10.63;;;25.90;99.90;;;;;;5072830;28;20201;-70
2022/06/09 08:45:00;;;;;;;11.85;10.52;;;25.80;99.90;;;;;;5072123;28;20270;-69
2022/06/09 08:47:37;;;;;;;11.23;9.18;;;25.90;99.90;;;;;;5072672;28;20544;-69
2022/06/09 08:50:13;;;;;;;11.70;10.25;;;26.00;99.90;;;;;;5072574;28;20225;-70
2022/06/09 08:52:50;;;;;;;10.20;9.30;;;26.00;99.90;;;;;;5062023;28;20340;-69
2022/06/09 08:55:28;;;;;;;10.35;9.35;;;26.10;99.90;;;;;;5072654;28;20205;-69
2022/06/09 08:57:58;;;;;;;9.48;8.57;;;26.10;99.90;;;;;;5060076;28;20205;-69
2022/06/09 09:00:30;;;;;;;9.65;8.75;;;26.20;99.90;;;;;;5071690;28;20284;-69
2022/06/09 09:03:03;;;;;;;10.65;9.63;;;26.40;99.90;;;;;;5067974;28;20201;-69
2022/06/09 09:05:36;;;;;;;10.93;9.85;;;26.70;99.90;;;;;;5072499;28;20258;-74
2022/06/09 09:08:06;;;;;;;11.93;8.10;;;27.00;99.90;;;;;;5059154;28;20209;-69
2022/06/09 09:10:42;;;;;;;10.23;8.07;;;27.20;99.90;;;;;;5077000;28;20205;-69
2022/06/09 09:13:38;;;;;;;9.35;8.10;;;27.40;99.90;;;;;;5066180;28;20200;-68
2022/06/09 09:16:11;;;;;;;8.98;8.18;;;27.60;99.90;;;;;;5068411;28;20680;-68
2022/06/09 09:18:45;;;;;;;8.05;7.35;;;28.00;99.90;;;;;;5057723;28;20193;-68
2022/06/09 09:21:24;;;;;;;8.20;7.47;;;28.30;99.90;;;;;;5068388;28;20212;-69
2022/06/09 09:24:07;;;;;;;8.77;6.85;;;28.60;99.90;;;;;;5059308;28;20216;-69
2022/06/09 09:26:49;;;;;;;9.18;8.27;;;28.90;99.90;;;;;;5072803;28;20225;-69
2022/06/09 09:29:23;;;;;;;8.85;8.15;;;29.00;99.90;;;;;;5070302;28;20306;-69
2022/06/09 09:31:54;;;;;;;8.20;7.50;;;29.10;99.90;;;;;;5070822;28;20214;-68
2022/06/09 09:34:25;;;;;;;8.23;7.30;;;29.20;99.90;;;;;;5086298;28;20197;-69
2022/06/09 09:36:55;;;;;;;7.50;6.90;;;29.40;99.90;;;;;;5086714;28;20197;-69
2022/06/09 09:39:24;;;;;;;8.18;7.45;;;29.70;99.90;;;;;;5084531;28;20204;-68
2022/06/09 09:41:58;;;;;;;8.25;7.55;;;29.90;99.90;;;;;;5088271;28;20258;-69
2022/06/09 09:44:27;;;;;;;9.48;8.57;;;30.10;99.80;;;;;;5081723;28;20212;-67
2022/06/09 09:46:57;;;;;;;10.45;9.45;;;30.10;99.90;;;;;;5087971;28;20709;-69
2022/06/09 09:49:29;;;;;;;12.27;11.07;;;30.20;99.90;;;;;;5077559;28;20672;-69
2022/06/09 09:51:57;;;;;;;13.30;11.85;;;30.20;99.90;;;;;;5076725;28;20677;-68
2022/06/09 09:54:28;;;;;;;13.25;11.90;;;30.30;99.90;;;;;;5072217;28;20608;-68
2022/06/09 09:57:06;;;;;;;16.30;11.48;;;30.20;99.90;;;;;;5089534;28;20216;-69
2022/06/09 09:59:44;;;;;;;15.13;13.52;;;30.20;99.90;;;;;;5088037;28;20224;-69
2022/06/09 10:08:38;;;;;;;16.90;13.77;;;29.80;99.90;;;;;;5084321;28;20209;-68
2022/06/09 10:13:52;;;;;;;14.25;12.85;;;29.70;99.90;;;;;;5063158;28;20678;-69
2022/06/09 10:16:21;;;;;;;14.77;13.18;;;29.90;99.90;;;;;;5074643;28;20237;-69
2022/06/09 10:18:53;;;;;;;12.55;11.40;;;30.10;99.90;;;;;;5074401;28;20206;-70
2022/06/09 10:21:21;;;;;;;12.55;11.35;;;30.30;99.90;;;;;;5074606;28;20565;-70
2022/06/09 10:23:55;;;;;;;11.45;10.43;;;30.40;99.90;;;;;;5075587;28;20274;-70
2022/06/09 10:26:26;;;;;;;11.55;10.35;;;30.30;99.90;;;;;;5075161;28;20220;-68
2022/06/09 10:29:00;;;;;;;11.15;10.05;;;30.30;99.90;;;;;;5079074;28;20343;-71
2022/06/09 10:31:35;;;;;;;10.43;9.35;;;30.20;99.90;;;;;;5086016;28;20246;-70
2022/06/09 10:34:12;;;;;;;10.60;8.90;;;30.20;99.90;;;;;;5074566;28;20212;-75
2022/06/09 10:36:51;;;;;;;8.68;7.88;;;30.20;99.90;;;;;;5069575;28;20271;-69
2022/06/09 10:39:23;;;;;;;10.45;9.38;;;30.20;99.90;;;;;;5074639;28;20308;-69
2022/06/09 10:41:54;;;;;;;11.85;9.65;;;30.30;99.60;;;;;;5074778;28;20229;-69
2022/06/09 10:44:26;;;;;;;10.00;8.63;;;30.30;99.70;;;;;;5074756;28;20200;-69
2022/06/09 10:55:35;;;;;;;10.90;9.80;;;30.20;99.60;;;;;;5068341;28;20192;-69
2022/06/09 10:58:07;;;;;;;9.52;8.50;;;30.00;99.30;;;;;;5074543;28;20201;-69
2022/06/09 11:00:36;;;;;;;9.52;8.73;;;29.90;99.60;;;;;;5073544;28;20201;-69
2022/06/09 11:03:12;;;;;;;10.43;9.15;;;29.80;99.90;;;;;;5080545;28;20219;-69
2022/06/09 11:05:55;;;;;;;10.60;9.38;;;29.70;99.90;;;;;;5075703;28;20208;-70
2022/06/09 11:08:32;;;;;;;9.80;9.02;;;29.60;99.90;;;;;;5074400;28;20544;-69
2022/06/09 11:11:10;;;;;;;10.18;9.05;;;29.50;99.90;;;;;;5073815;28;20197;-70
2022/06/09 11:13:58;;;;;;;8.82;7.93;;;29.50;99.90;;;;;;5073737;28;20201;-70
2022/06/09 11:16:35;;;;;;;9.13;8.23;;;29.60;99.90;;;;;;5074590;28;20241;-69
2022/06/09 11:19:30;;;;;;;8.68;7.95;;;29.70;99.90;;;;;;5074503;28;20287;-70
2022/06/09 11:22:08;;;;;;;9.10;8.30;;;29.90;99.60;;;;;;5074110;28;20280;-70
2022/06/09 11:24:48;;;;;;;9.68;8.40;;;30.00;99.30;;;;;;5074178;28;20209;-70
2022/06/09 11:27:26;;;;;;;9.07;8.30;;;30.30;99.00;;;;;;5060313;28;20645;-70
2022/06/09 11:30:12;;;;;;;9.95;8.13;;;30.40;98.60;;;;;;5073420;28;20229;-69
2022/06/09 11:32:46;;;;;;;8.25;7.63;;;30.40;98.00;;;;;;5063936;28;20662;-70
2022/06/09 11:35:21;;;;;;;9.13;8.02;;;30.50;97.50;;;;;;5072819;28;20219;-70
2022/06/09 11:38:06;;;;;;;9.95;7.45;;;30.60;96.90;;;;;;5073056;28;20205;-69
2022/06/09 11:40:43;;;;;;;8.07;7.25;;;30.70;96.40;;;;;;5073483;28;20580;-70
2022/06/09 11:43:30;;;;;;;8.68;7.10;;;30.70;95.80;;;;;;5074185;28;20672;-69
2022/06/09 11:46:03;;;;;;;7.97;7.32;;;30.70;95.90;;;;;;5072831;28;20212;-70
2022/06/09 11:48:32;;;;;;;9.18;6.88;;;30.80;95.90;;;;;;5068829;28;20202;-69
2022/06/09 11:51:01;;;;;;;7.72;7.00;;;30.80;95.30;;;;;;5059176;28;20212;-69
2022/06/09 11:53:30;;;;;;;7.47;6.90;;;30.80;94.40;;;;;;5081847;28;20211;-69
2022/06/09 11:56:33;;;;;;;7.82;7.00;;;30.80;94.10;;;;;;5077222;28;20207;-70
2022/06/09 11:59:01;;;;;;;9.10;6.15;;;31.00;94.00;;;;;;5089034;28;20664;-70
2022/06/09 12:01:50;;;;;;;7.65;6.80;;;31.20;93.50;;;;;;5085879;28;20545;-70
2022/06/09 12:04:30;;;;;;;7.05;6.45;;;31.20;92.70;;;;;;5086973;28;20208;-70
2022/06/09 12:07:20;;;;;;;7.00;6.38;;;31.20;92.70;;;;;;5081054;28;20751;-68
2022/06/09 12:09:57;;;;;;;9.02;6.75;;;31.20;92.50;;;;;;5071489;28;20209;-69
2022/06/09 12:12:32;;;;;;;7.72;6.97;;;31.40;92.30;;;;;;5073124;28;20228;-70
2022/06/09 12:15:24;;;;;;;7.15;6.15;;;31.50;92.20;;;;;;5073069;28;20205;-68
2022/06/09 12:18:01;;;;;;;6.82;6.20;;;31.60;91.60;;;;;;5073142;28;20197;-69
2022/06/09 12:20:33;;;;;;;6.50;5.97;;;31.60;90.60;;;;;;5059711;28;20280;-68
2022/06/09 12:23:05;;;;;;;6.65;6.00;;;31.40;90.20;;;;;;5073038;28;20197;-69
2022/06/09 12:25:36;;;;;;;5.50;4.88;;;31.40;90.10;;;;;;5072986;28;20228;-69
2022/06/09 12:28:44;;;;;;;6.05;5.45;;;31.20;88.00;;;;;;5072232;28;20217;-71
2022/06/09 12:31:12;;;;;;;5.72;5.10;;;30.90;86.60;;;;;;5066236;28;20197;-69
2022/06/09 12:33:39;;;;;;;5.85;4.70;;;30.70;84.80;;;;;;5071941;28;20717;-72
2022/06/09 12:36:11;;;;;;;5.82;4.80;;;30.50;84.10;;;;;;5067587;28;20220;-70
2022/06/09 12:38:41;;;;;;;9.15;5.18;;;30.50;84.20;;;;;;5072318;28;20205;-70
2022/06/09 12:41:22;;;;;;;7.72;4.85;;;30.50;82.00;;;;;;5073457;28;20641;-71
2022/06/09 12:44:00;;;;;;;5.07;4.32;;;30.70;80.00;;;;;;5072680;28;20205;-71
2022/06/09 12:46:28;;;;;;;5.10;4.53;;;30.90;79.10;;;;;;5085260;28;20197;-71
2022/06/09 12:48:56;;;;;;;5.32;4.05;;;31.10;78.10;;;;;;5057810;28;20201;-70
2022/06/09 12:51:27;;;;;;;6.20;4.00;;;31.30;76.50;;;;;;5072940;28;20241;-71
2022/06/09 12:53:59;;;;;;;4.38;3.97;;;31.50;75.20;;;;;;5075345;28;20209;-72
2022/06/09 12:56:33;;;;;;;5.55;4.15;;;31.70;74.40;;;;;;5075350;28;20236;-73
2022/06/09 12:59:06;;;;;;;7.32;4.57;;;31.70;73.20;;;;;;5074578;28;20207;-70
2022/06/09 13:01:33;;;;;;;4.28;3.92;;;31.50;72.10;;;;;;5072943;28;20205;-69
2022/06/09 13:04:04;;;;;;;5.80;4.32;;;31.40;72.10;;;;;;5082513;28;20197;-71
2022/06/09 13:06:35;;;;;;;5.63;3.90;;;31.30;71.20;;;;;;5076235;28;20201;-70
2022/06/09 13:09:14;;;;;;;8.07;4.50;;;31.40;70.50;;;;;;5071778;28;20588;-69
2022/06/09 13:14:31;;;;;;;4.57;3.90;;;31.50;69.70;;;;;;5071868;28;20224;-69